Pleasant Hill, Illinois
Current Conditions -  °F | °C
As of 5:15 AM on Saturday 20 Dec 2014 (Local Time) from KPPQ Reporting Station
Overcast Overcast  
Wind Chill: 32°   Ceiling: 4800
Heat Index: 32°   Visibility: 7mi
Dew Point: 29°   Wind: 0mph
Humidity: 88%   Direction: NA
Pressure: 30.25"   Gusts: NA
Location:  39.44°N, 90.87°W
Report Text: KPPQ 201115Z AUTO 00000KT 7SM OVC048 00/M02 A3025 RMK AO2 T00011016
Loading
Personal Weather Stations






























Interactive Weather Map New forecast layout! Learn more

10-Day Weather Forecast

Advertisements
Track Severe Weather on mobile